sensor_id;sensor_type;location;lat;lon;timestamp;temperature;humidity
21744;DHT22;11034;48.556;9.342;2022-12-07T00:01:37;2.50;99.90
21744;DHT22;11034;48.556;9.342;2022-12-07T00:04:07;2.50;99.90
21744;DHT22;11034;48.556;9.342;2022-12-07T00:06:37;2.40;99.90
21744;DHT22;11034;48.556;9.342;2022-12-07T00:09:06;2.50;99.90
21744;DHT22;11034;48.556;9.342;2022-12-07T00:11:35;2.50;99.90
21744;DHT22;11034;48.556;9.342;2022-12-07T00:14:06;2.60;99.90
21744;DHT22;11034;48.556;9.342;2022-12-07T00:16:36;2.60;99.90
21744;DHT22;11034;48.556;9.342;2022-12-07T00:19:06;2.60;99.90
21744;DHT22;11034;48.556;9.342;2022-12-07T00:21:35;2.60;99.90
21744;DHT22;11034;48.556;9.342;2022-12-07T00:24:05;2.60;99.90
21744;DHT22;11034;48.556;9.342;2022-12-07T00:26:35;2.60;99.90
21744;DHT22;11034;48.556;9.342;2022-12-07T00:29:06;2.60;99.90
21744;DHT22;11034;48.556;9.342;2022-12-07T00:31:36;2.60;99.90
21744;DHT22;11034;48.556;9.342;2022-12-07T00:34:06;2.60;99.90
21744;DHT22;11034;48.556;9.342;2022-12-07T00:36:35;2.60;99.90
21744;DHT22;11034;48.556;9.342;2022-12-07T00:39:03;2.60;99.90
21744;DHT22;11034;48.556;9.342;2022-12-07T00:41:32;2.50;99.90
21744;DHT22;11034;48.556;9.342;2022-12-07T00:44:00;2.50;99.90
21744;DHT22;11034;48.556;9.342;2022-12-07T00:46:28;2.50;99.90
21744;DHT22;11034;48.556;9.342;2022-12-07T00:48:58;2.50;99.90
21744;DHT22;11034;48.556;9.342;2022-12-07T00:51:26;2.50;99.90
21744;DHT22;11034;48.556;9.342;2022-12-07T00:53:54;2.50;99.90
21744;DHT22;11034;48.556;9.342;2022-12-07T00:56:24;2.60;99.90
21744;DHT22;11034;48.556;9.342;2022-12-07T00:58:53;2.60;99.90
21744;DHT22;11034;48.556;9.342;2022-12-07T01:01:23;2.60;99.90
21744;DHT22;11034;48.556;9.342;2022-12-07T01:03:51;2.60;99.90
21744;DHT22;11034;48.556;9.342;2022-12-07T01:06:22;2.60;99.90
21744;DHT22;11034;48.556;9.342;2022-12-07T01:08:50;2.60;99.90
21744;DHT22;11034;48.556;9.342;2022-12-07T01:11:20;2.70;99.90
21744;DHT22;11034;48.556;9.342;2022-12-07T01:13:50;2.60;99.90
21744;DHT22;11034;48.556;9.342;2022-12-07T01:16:20;2.60;99.90
21744;DHT22;11034;48.556;9.342;2022-12-07T01:18:53;2.60;99.90
21744;DHT22;11034;48.556;9.342;2022-12-07T01:21:24;2.60;99.90
21744;DHT22;11034;48.556;9.342;2022-12-07T01:23:53;2.50;99.90
21744;DHT22;11034;48.556;9.342;2022-12-07T01:26:23;2.50;99.90
21744;DHT22;11034;48.556;9.342;2022-12-07T01:28:52;2.50;99.90
21744;DHT22;11034;48.556;9.342;2022-12-07T01:31:23;2.50;99.90
21744;DHT22;11034;48.556;9.342;2022-12-07T01:33:53;2.50;99.90
21744;DHT22;11034;48.556;9.342;2022-12-07T01:36:24;2.50;99.90
21744;DHT22;11034;48.556;9.342;2022-12-07T01:38:56;2.50;99.90
21744;DHT22;11034;48.556;9.342;2022-12-07T01:41:26;2.50;99.90
21744;DHT22;11034;48.556;9.342;2022-12-07T01:44:11;2.50;99.90
21744;DHT22;11034;48.556;9.342;2022-12-07T01:46:40;2.50;99.90
21744;DHT22;11034;48.556;9.342;2022-12-07T01:49:12;2.50;99.90
21744;DHT22;11034;48.556;9.342;2022-12-07T01:51:43;2.50;99.90
21744;DHT22;11034;48.556;9.342;2022-12-07T01:54:12;2.60;99.90
21744;DHT22;11034;48.556;9.342;2022-12-07T01:56:42;2.60;99.90
21744;DHT22;11034;48.556;9.342;2022-12-07T01:59:12;2.50;99.90
21744;DHT22;11034;48.556;9.342;2022-12-07T02:01:42;2.50;99.90
21744;DHT22;11034;48.556;9.342;2022-12-07T02:04:11;2.50;99.90
21744;DHT22;11034;48.556;9.342;2022-12-07T02:06:41;2.50;99.90
21744;DHT22;11034;48.556;9.342;2022-12-07T02:09:10;2.60;99.90
21744;DHT22;11034;48.556;9.342;2022-12-07T02:11:39;2.60;99.90
21744;DHT22;11034;48.556;9.342;2022-12-07T02:14:07;2.50;99.90
21744;DHT22;11034;48.556;9.342;2022-12-07T02:16:42;2.50;99.90
21744;DHT22;11034;48.556;9.342;2022-12-07T02:22:32;2.60;99.90
21744;DHT22;11034;48.556;9.342;2022-12-07T02:25:08;2.60;99.90
21744;DHT22;11034;48.556;9.342;2022-12-07T02:27:45;2.60;99.90
21744;DHT22;11034;48.556;9.342;2022-12-07T02:30:16;2.60;99.90
21744;DHT22;11034;48.556;9.342;2022-12-07T02:32:51;2.50;99.90
21744;DHT22;11034;48.556;9.342;2022-12-07T02:35:25;2.50;99.90
21744;DHT22;11034;48.556;9.342;2022-12-07T02:38:03;2.60;99.90
21744;DHT22;11034;48.556;9.342;2022-12-07T02:40:36;2.60;99.90
21744;DHT22;11034;48.556;9.342;2022-12-07T02:43:10;2.60;99.90
21744;DHT22;11034;48.556;9.342;2022-12-07T02:45:41;2.50;99.90
21744;DHT22;11034;48.556;9.342;2022-12-07T02:48:12;2.50;99.90
21744;DHT22;11034;48.556;9.342;2022-12-07T02:50:44;2.50;99.90
21744;DHT22;11034;48.556;9.342;2022-12-07T02:53:29;2.50;99.90
21744;DHT22;11034;48.556;9.342;2022-12-07T02:55:58;2.40;99.90
21744;DHT22;11034;48.556;9.342;2022-12-07T02:58:35;2.40;99.90
21744;DHT22;11034;48.556;9.342;2022-12-07T03:01:13;2.40;99.90
21744;DHT22;11034;48.556;9.342;2022-12-07T03:03:48;2.40;99.90
21744;DHT22;11034;48.556;9.342;2022-12-07T03:06:22;2.40;99.90
21744;DHT22;11034;48.556;9.342;2022-12-07T03:09:01;2.40;99.90
21744;DHT22;11034;48.556;9.342;2022-12-07T03:11:37;2.40;99.90
21744;DHT22;11034;48.556;9.342;2022-12-07T03:14:13;2.30;99.90
21744;DHT22;11034;48.556;9.342;2022-12-07T03:16:52;2.30;99.90
21744;DHT22;11034;48.556;9.342;2022-12-07T03:19:21;2.30;99.90
21744;DHT22;11034;48.556;9.342;2022-12-07T03:21:55;2.20;99.90
21744;DHT22;11034;48.556;9.342;2022-12-07T03:24:27;2.20;99.90
21744;DHT22;11034;48.556;9.342;2022-12-07T03:27:01;2.20;99.90
21744;DHT22;11034;48.556;9.342;2022-12-07T03:29:33;2.10;99.90
21744;DHT22;11034;48.556;9.342;2022-12-07T03:32:06;2.10;99.90
21744;DHT22;11034;48.556;9.342;2022-12-07T03:34:40;2.10;99.90
21744;DHT22;11034;48.556;9.342;2022-12-07T03:37:12;2.00;99.90
21744;DHT22;11034;48.556;9.342;2022-12-07T03:39:46;2.00;99.90
21744;DHT22;11034;48.556;9.342;2022-12-07T03:42:17;1.90;99.90
21744;DHT22;11034;48.556;9.342;2022-12-07T03:44:45;1.90;99.90
21744;DHT22;11034;48.556;9.342;2022-12-07T03:47:19;1.90;99.90
21744;DHT22;11034;48.556;9.342;2022-12-07T03:49:53;1.80;99.90
21744;DHT22;11034;48.556;9.342;2022-12-07T03:52:27;1.80;99.90
21744;DHT22;11034;48.556;9.342;2022-12-07T03:55:00;1.80;99.90
21744;DHT22;11034;48.556;9.342;2022-12-07T03:57:30;1.70;99.90
21744;DHT22;11034;48.556;9.342;2022-12-07T04:00:03;1.80;99.90
21744;DHT22;11034;48.556;9.342;2022-12-07T04:02:33;1.80;99.90
21744;DHT22;11034;48.556;9.342;2022-12-07T04:05:02;1.80;99.90
21744;DHT22;11034;48.556;9.342;2022-12-07T04:07:30;1.80;99.90
21744;DHT22;11034;48.556;9.342;2022-12-07T04:09:58;1.80;99.90
21744;DHT22;11034;48.556;9.342;2022-12-07T04:12:26;1.80;99.90
21744;DHT22;11034;48.556;9.342;2022-12-07T04:14:54;1.80;99.90
21744;DHT22;11034;48.556;9.342;2022-12-07T04:17:22;1.80;99.90
21744;DHT22;11034;48.556;9.342;2022-12-07T04:19:52;1.80;99.90
21744;DHT22;11034;48.556;9.342;2022-12-07T04:22:20;1.80;99.90
21744;DHT22;11034;48.556;9.342;2022-12-07T04:24:48;1.90;99.90
21744;DHT22;11034;48.556;9.342;2022-12-07T04:27:16;1.90;99.90
21744;DHT22;11034;48.556;9.342;2022-12-07T04:29:44;1.90;99.90
21744;DHT22;11034;48.556;9.342;2022-12-07T04:32:12;1.90;99.90
21744;DHT22;11034;48.556;9.342;2022-12-07T04:34:40;1.90;99.90
21744;DHT22;11034;48.556;9.342;2022-12-07T04:37:09;1.90;99.90
21744;DHT22;11034;48.556;9.342;2022-12-07T04:39:37;1.80;99.90
21744;DHT22;11034;48.556;9.342;2022-12-07T04:42:05;1.80;99.90
21744;DHT22;11034;48.556;9.342;2022-12-07T04:44:33;1.80;99.90
21744;DHT22;11034;48.556;9.342;2022-12-07T04:47:01;1.80;99.90
21744;DHT22;11034;48.556;9.342;2022-12-07T04:49:29;1.80;99.90
21744;DHT22;11034;48.556;9.342;2022-12-07T04:51:57;1.80;99.90
21744;DHT22;11034;48.556;9.342;2022-12-07T04:54:27;1.80;99.90
21744;DHT22;11034;48.556;9.342;2022-12-07T04:56:55;1.80;99.90
21744;DHT22;11034;48.556;9.342;2022-12-07T04:59:23;1.80;99.90
21744;DHT22;11034;48.556;9.342;2022-12-07T05:01:51;1.80;99.90
21744;DHT22;11034;48.556;9.342;2022-12-07T05:04:19;1.80;99.90
21744;DHT22;11034;48.556;9.342;2022-12-07T05:06:47;1.70;99.90
21744;DHT22;11034;48.556;9.342;2022-12-07T05:09:15;1.50;99.90
21744;DHT22;11034;48.556;9.342;2022-12-07T05:11:44;1.40;99.90
21744;DHT22;11034;48.556;9.342;2022-12-07T05:14:14;1.30;99.90
21744;DHT22;11034;48.556;9.342;2022-12-07T05:16:43;1.20;99.90
21744;DHT22;11034;48.556;9.342;2022-12-07T05:19:12;1.20;99.90
21744;DHT22;11034;48.556;9.342;2022-12-07T05:21:41;1.10;99.90
21744;DHT22;11034;48.556;9.342;2022-12-07T05:24:11;1.20;99.90
21744;DHT22;11034;48.556;9.342;2022-12-07T05:26:40;1.20;99.90
21744;DHT22;11034;48.556;9.342;2022-12-07T05:29:11;1.20;99.90
21744;DHT22;11034;48.556;9.342;2022-12-07T05:31:39;1.20;99.90
21744;DHT22;11034;48.556;9.342;2022-12-07T05:34:08;1.20;99.90
21744;DHT22;11034;48.556;9.342;2022-12-07T05:36:36;1.20;99.90
21744;DHT22;11034;48.556;9.342;2022-12-07T05:39:04;1.10;99.90
21744;DHT22;11034;48.556;9.342;2022-12-07T05:41:32;1.00;99.90
21744;DHT22;11034;48.556;9.342;2022-12-07T05:44:18;1.00;99.90
21744;DHT22;11034;48.556;9.342;2022-12-07T05:46:46;1.00;99.90
21744;DHT22;11034;48.556;9.342;2022-12-07T05:49:14;1.00;99.90
21744;DHT22;11034;48.556;9.342;2022-12-07T05:51:42;1.00;99.90
21744;DHT22;11034;48.556;9.342;2022-12-07T05:54:11;1.00;99.90
21744;DHT22;11034;48.556;9.342;2022-12-07T05:56:39;1.00;99.90
21744;DHT22;11034;48.556;9.342;2022-12-07T05:59:08;1.10;99.90
21744;DHT22;11034;48.556;9.342;2022-12-07T06:01:53;1.10;99.90
21744;DHT22;11034;48.556;9.342;2022-12-07T06:04:23;1.20;99.90
21744;DHT22;11034;48.556;9.342;2022-12-07T06:06:51;1.30;99.90
21744;DHT22;11034;48.556;9.342;2022-12-07T06:09:20;1.40;99.90
21744;DHT22;11034;48.556;9.342;2022-12-07T06:11:48;1.40;99.90
21744;DHT22;11034;48.556;9.342;2022-12-07T06:14:34;1.40;99.90
21744;DHT22;11034;48.556;9.342;2022-12-07T06:17:03;1.40;99.90
21744;DHT22;11034;48.556;9.342;2022-12-07T06:19:31;1.40;99.90
21744;DHT22;11034;48.556;9.342;2022-12-07T06:21:59;1.40;99.90
21744;DHT22;11034;48.556;9.342;2022-12-07T06:24:27;1.30;99.90
21744;DHT22;11034;48.556;9.342;2022-12-07T06:26:55;1.30;99.90
21744;DHT22;11034;48.556;9.342;2022-12-07T06:29:23;1.30;99.90
21744;DHT22;11034;48.556;9.342;2022-12-07T06:31:51;1.20;99.90
21744;DHT22;11034;48.556;9.342;2022-12-07T06:34:22;1.20;99.90
21744;DHT22;11034;48.556;9.342;2022-12-07T06:36:50;1.30;99.90
21744;DHT22;11034;48.556;9.342;2022-12-07T06:39:21;1.30;99.90
21744;DHT22;11034;48.556;9.342;2022-12-07T06:41:50;1.30;99.90
21744;DHT22;11034;48.556;9.342;2022-12-07T06:44:20;1.30;99.90
21744;DHT22;11034;48.556;9.342;2022-12-07T06:46:48;1.30;99.90
21744;DHT22;11034;48.556;9.342;2022-12-07T06:49:16;1.20;99.90
21744;DHT22;11034;48.556;9.342;2022-12-07T06:51:45;1.30;99.90
21744;DHT22;11034;48.556;9.342;2022-12-07T06:54:14;1.30;99.90
21744;DHT22;11034;48.556;9.342;2022-12-07T06:56:43;1.30;99.90
21744;DHT22;11034;48.556;9.342;2022-12-07T06:59:11;1.40;99.90
21744;DHT22;11034;48.556;9.342;2022-12-07T07:01:39;1.40;99.90
21744;DHT22;11034;48.556;9.342;2022-12-07T07:04:07;1.40;99.90
21744;DHT22;11034;48.556;9.342;2022-12-07T07:06:35;1.50;99.90
21744;DHT22;11034;48.556;9.342;2022-12-07T07:09:05;1.50;99.90
21744;DHT22;11034;48.556;9.342;2022-12-07T07:11:33;1.50;99.90
21744;DHT22;11034;48.556;9.342;2022-12-07T07:14:01;1.50;99.90
21744;DHT22;11034;48.556;9.342;2022-12-07T07:16:29;1.40;99.90
21744;DHT22;11034;48.556;9.342;2022-12-07T07:18:58;1.30;99.90
21744;DHT22;11034;48.556;9.342;2022-12-07T07:21:26;1.30;99.90
21744;DHT22;11034;48.556;9.342;2022-12-07T07:23:54;1.30;99.90
21744;DHT22;11034;48.556;9.342;2022-12-07T07:26:24;1.40;99.90
21744;DHT22;11034;48.556;9.342;2022-12-07T07:28:52;1.30;99.90
21744;DHT22;11034;48.556;9.342;2022-12-07T07:31:20;1.30;99.90
21744;DHT22;11034;48.556;9.342;2022-12-07T07:33:49;1.30;99.90
21744;DHT22;11034;48.556;9.342;2022-12-07T07:36:17;1.30;99.90
21744;DHT22;11034;48.556;9.342;2022-12-07T07:38:45;1.30;99.90
21744;DHT22;11034;48.556;9.342;2022-12-07T07:41:13;1.30;99.90
21744;DHT22;11034;48.556;9.342;2022-12-07T07:43:42;1.50;99.90
21744;DHT22;11034;48.556;9.342;2022-12-07T07:46:10;1.70;99.90
21744;DHT22;11034;48.556;9.342;2022-12-07T07:48:38;1.80;99.90
21744;DHT22;11034;48.556;9.342;2022-12-07T07:51:07;1.90;99.90
21744;DHT22;11034;48.556;9.342;2022-12-07T07:53:37;1.70;99.90
21744;DHT22;11034;48.556;9.342;2022-12-07T07:56:05;1.60;99.90
21744;DHT22;11034;48.556;9.342;2022-12-07T07:58:33;1.70;99.90
21744;DHT22;11034;48.556;9.342;2022-12-07T08:01:07;1.60;99.90
21744;DHT22;11034;48.556;9.342;2022-12-07T08:03:35;1.60;99.90
21744;DHT22;11034;48.556;9.342;2022-12-07T08:06:04;1.70;99.90
21744;DHT22;11034;48.556;9.342;2022-12-07T08:08:32;1.70;99.90
21744;DHT22;11034;48.556;9.342;2022-12-07T08:11:00;1.70;99.90
21744;DHT22;11034;48.556;9.342;2022-12-07T08:13:28;1.60;99.90
21744;DHT22;11034;48.556;9.342;2022-12-07T08:15:57;1.60;99.90
21744;DHT22;11034;48.556;9.342;2022-12-07T08:18:27;1.70;99.90
21744;DHT22;11034;48.556;9.342;2022-12-07T08:20:59;1.80;99.90
21744;DHT22;11034;48.556;9.342;2022-12-07T08:23:27;1.90;99.90
21744;DHT22;11034;48.556;9.342;2022-12-07T08:26:06;1.90;99.90
21744;DHT22;11034;48.556;9.342;2022-12-07T08:28:35;2.00;99.90
21744;DHT22;11034;48.556;9.342;2022-12-07T08:31:04;2.00;99.90
21744;DHT22;11034;48.556;9.342;2022-12-07T08:33:34;2.00;99.90
21744;DHT22;11034;48.556;9.342;2022-12-07T08:36:03;2.10;99.90
21744;DHT22;11034;48.556;9.342;2022-12-07T08:38:31;2.20;99.90
21744;DHT22;11034;48.556;9.342;2022-12-07T08:41:00;2.30;99.90
21744;DHT22;11034;48.556;9.342;2022-12-07T08:43:28;2.40;99.90
21744;DHT22;11034;48.556;9.342;2022-12-07T08:46:06;2.40;99.90
21744;DHT22;11034;48.556;9.342;2022-12-07T08:48:39;2.40;99.90
21744;DHT22;11034;48.556;9.342;2022-12-07T08:51:08;2.40;99.90
21744;DHT22;11034;48.556;9.342;2022-12-07T08:53:40;2.50;99.90
21744;DHT22;11034;48.556;9.342;2022-12-07T08:56:09;2.70;99.90
21744;DHT22;11034;48.556;9.342;2022-12-07T08:58:38;2.70;99.90
21744;DHT22;11034;48.556;9.342;2022-12-07T09:01:06;2.80;99.90
21744;DHT22;11034;48.556;9.342;2022-12-07T09:03:36;3.00;99.90
21744;DHT22;11034;48.556;9.342;2022-12-07T09:06:04;3.10;99.90
21744;DHT22;11034;48.556;9.342;2022-12-07T09:08:36;3.10;99.90
21744;DHT22;11034;48.556;9.342;2022-12-07T09:11:05;3.10;99.90
21744;DHT22;11034;48.556;9.342;2022-12-07T09:13:33;3.20;99.90
21744;DHT22;11034;48.556;9.342;2022-12-07T09:16:01;3.60;99.90
21744;DHT22;11034;48.556;9.342;2022-12-07T09:18:29;3.90;99.90
21744;DHT22;11034;48.556;9.342;2022-12-07T09:20:59;3.70;99.90
21744;DHT22;11034;48.556;9.342;2022-12-07T09:23:27;3.50;99.90
21744;DHT22;11034;48.556;9.342;2022-12-07T09:25:58;3.40;99.90
21744;DHT22;11034;48.556;9.342;2022-12-07T09:28:28;3.20;99.90
21744;DHT22;11034;48.556;9.342;2022-12-07T09:30:58;3.20;99.90
21744;DHT22;11034;48.556;9.342;2022-12-07T09:33:46;3.20;99.90
21744;DHT22;11034;48.556;9.342;2022-12-07T09:36:15;3.20;99.90
21744;DHT22;11034;48.556;9.342;2022-12-07T09:38:43;3.20;99.90
21744;DHT22;11034;48.556;9.342;2022-12-07T09:41:11;3.10;99.90
21744;DHT22;11034;48.556;9.342;2022-12-07T09:43:40;3.10;99.90
21744;DHT22;11034;48.556;9.342;2022-12-07T09:46:10;3.10;99.90
21744;DHT22;11034;48.556;9.342;2022-12-07T09:48:42;3.10;99.90
21744;DHT22;11034;48.556;9.342;2022-12-07T09:51:17;3.20;99.90
21744;DHT22;11034;48.556;9.342;2022-12-07T09:53:50;3.20;99.90
21744;DHT22;11034;48.556;9.342;2022-12-07T09:56:19;3.20;99.90
21744;DHT22;11034;48.556;9.342;2022-12-07T09:58:48;3.20;99.90
21744;DHT22;11034;48.556;9.342;2022-12-07T10:01:18;3.30;99.90
21744;DHT22;11034;48.556;9.342;2022-12-07T10:03:50;3.30;99.90
21744;DHT22;11034;48.556;9.342;2022-12-07T10:06:20;3.30;99.90
21744;DHT22;11034;48.556;9.342;2022-12-07T10:08:48;3.40;99.90
21744;DHT22;11034;48.556;9.342;2022-12-07T10:11:16;3.50;99.90
21744;DHT22;11034;48.556;9.342;2022-12-07T10:13:45;3.60;99.90
21744;DHT22;11034;48.556;9.342;2022-12-07T10:16:35;3.70;99.90
21744;DHT22;11034;48.556;9.342;2022-12-07T10:19:20;3.70;99.90
21744;DHT22;11034;48.556;9.342;2022-12-07T10:22:10;3.70;99.90
21744;DHT22;11034;48.556;9.342;2022-12-07T10:24:39;3.60;99.90
21744;DHT22;11034;48.556;9.342;2022-12-07T10:27:18;3.70;99.90
21744;DHT22;11034;48.556;9.342;2022-12-07T10:29:48;3.70;99.90
21744;DHT22;11034;48.556;9.342;2022-12-07T10:32:31;3.80;99.90
21744;DHT22;11034;48.556;9.342;2022-12-07T10:35:23;4.00;99.90
21744;DHT22;11034;48.556;9.342;2022-12-07T10:37:57;4.00;99.90
21744;DHT22;11034;48.556;9.342;2022-12-07T10:40:31;4.00;99.90
21744;DHT22;11034;48.556;9.342;2022-12-07T10:43:03;4.10;99.90
21744;DHT22;11034;48.556;9.342;2022-12-07T10:45:32;4.00;99.90
21744;DHT22;11034;48.556;9.342;2022-12-07T10:48:11;4.10;99.90
21744;DHT22;11034;48.556;9.342;2022-12-07T10:50:59;4.10;99.90
21744;DHT22;11034;48.556;9.342;2022-12-07T10:53:44;4.20;99.90
21744;DHT22;11034;48.556;9.342;2022-12-07T10:59:34;4.20;99.90
21744;DHT22;11034;48.556;9.342;2022-12-07T11:02:21;4.20;99.90
21744;DHT22;11034;48.556;9.342;2022-12-07T11:05:01;4.30;99.90
21744;DHT22;11034;48.556;9.342;2022-12-07T11:07:41;4.30;99.90
21744;DHT22;11034;48.556;9.342;2022-12-07T11:10:19;4.30;99.90
21744;DHT22;11034;48.556;9.342;2022-12-07T11:13:04;4.30;99.90
21744;DHT22;11034;48.556;9.342;2022-12-07T11:15:50;4.30;99.90
21744;DHT22;11034;48.556;9.342;2022-12-07T11:18:24;4.20;99.90
21744;DHT22;11034;48.556;9.342;2022-12-07T11:20:59;4.20;99.90
21744;DHT22;11034;48.556;9.342;2022-12-07T11:23:44;4.30;99.90
21744;DHT22;11034;48.556;9.342;2022-12-07T11:26:28;4.60;99.90
21744;DHT22;11034;48.556;9.342;2022-12-07T11:29:10;4.60;99.90
21744;DHT22;11034;48.556;9.342;2022-12-07T11:31:53;4.50;99.90
21744;DHT22;11034;48.556;9.342;2022-12-07T11:34:30;4.50;99.90
21744;DHT22;11034;48.556;9.342;2022-12-07T11:37:08;4.50;99.90
21744;DHT22;11034;48.556;9.342;2022-12-07T11:39:44;4.50;99.90
21744;DHT22;11034;48.556;9.342;2022-12-07T11:42:22;4.50;99.90
21744;DHT22;11034;48.556;9.342;2022-12-07T11:44:55;4.60;99.90
21744;DHT22;11034;48.556;9.342;2022-12-07T11:47:32;4.90;99.90
21744;DHT22;11034;48.556;9.342;2022-12-07T11:50:10;4.90;99.90
21744;DHT22;11034;48.556;9.342;2022-12-07T11:52:44;5.00;99.90
21744;DHT22;11034;48.556;9.342;2022-12-07T11:55:21;4.90;99.90
21744;DHT22;11034;48.556;9.342;2022-12-07T11:58:00;4.80;99.90
21744;DHT22;11034;48.556;9.342;2022-12-07T12:00:30;4.50;99.90
21744;DHT22;11034;48.556;9.342;2022-12-07T12:03:02;4.50;99.90
21744;DHT22;11034;48.556;9.342;2022-12-07T12:05:31;4.60;99.90
21744;DHT22;11034;48.556;9.342;2022-12-07T12:08:06;4.70;99.90
21744;DHT22;11034;48.556;9.342;2022-12-07T12:11:05;4.80;99.90
21744;DHT22;11034;48.556;9.342;2022-12-07T12:14:18;4.90;99.90
21744;DHT22;11034;48.556;9.342;2022-12-07T12:20:16;5.00;99.90
21744;DHT22;11034;48.556;9.342;2022-12-07T12:22:52;4.90;99.90
21744;DHT22;11034;48.556;9.342;2022-12-07T12:25:23;4.90;99.90
21744;DHT22;11034;48.556;9.342;2022-12-07T12:27:55;4.90;99.90
21744;DHT22;11034;48.556;9.342;2022-12-07T12:30:34;4.90;99.90
21744;DHT22;11034;48.556;9.342;2022-12-07T12:33:05;4.90;99.90
21744;DHT22;11034;48.556;9.342;2022-12-07T12:35:35;4.80;99.90
21744;DHT22;11034;48.556;9.342;2022-12-07T12:38:47;4.90;99.90
21744;DHT22;11034;48.556;9.342;2022-12-07T12:45:11;5.00;99.90
21744;DHT22;11034;48.556;9.342;2022-12-07T12:48:04;5.00;99.90
21744;DHT22;11034;48.556;9.342;2022-12-07T12:51:36;4.90;99.90
21744;DHT22;11034;48.556;9.342;2022-12-07T12:54:10;4.80;99.90
21744;DHT22;11034;48.556;9.342;2022-12-07T12:56:42;4.80;99.90
21744;DHT22;11034;48.556;9.342;2022-12-07T12:59:25;4.70;99.90
21744;DHT22;11034;48.556;9.342;2022-12-07T13:01:56;4.80;99.90
21744;DHT22;11034;48.556;9.342;2022-12-07T13:04:50;4.80;99.90
21744;DHT22;11034;48.556;9.342;2022-12-07T13:07:49;4.80;99.90
21744;DHT22;11034;48.556;9.342;2022-12-07T13:10:33;4.70;99.90
21744;DHT22;11034;48.556;9.342;2022-12-07T13:13:25;4.70;99.90
21744;DHT22;11034;48.556;9.342;2022-12-07T13:15:54;4.60;99.90
21744;DHT22;11034;48.556;9.342;2022-12-07T13:18:42;4.60;99.90
21744;DHT22;11034;48.556;9.342;2022-12-07T13:24:12;4.80;99.90
21744;DHT22;11034;48.556;9.342;2022-12-07T13:26:42;4.70;99.90
21744;DHT22;11034;48.556;9.342;2022-12-07T13:29:13;4.70;99.90
21744;DHT22;11034;48.556;9.342;2022-12-07T13:31:43;4.60;99.90
21744;DHT22;11034;48.556;9.342;2022-12-07T13:34:29;4.40;99.90
21744;DHT22;11034;48.556;9.342;2022-12-07T13:36:59;4.50;99.90
21744;DHT22;11034;48.556;9.342;2022-12-07T13:39:29;4.40;99.90
21744;DHT22;11034;48.556;9.342;2022-12-07T13:41:58;4.40;99.90
21744;DHT22;11034;48.556;9.342;2022-12-07T13:44:34;4.50;99.90
21744;DHT22;11034;48.556;9.342;2022-12-07T13:47:14;4.40;99.90
21744;DHT22;11034;48.556;9.342;2022-12-07T13:49:48;4.50;99.90
21744;DHT22;11034;48.556;9.342;2022-12-07T13:52:21;4.40;99.90
21744;DHT22;11034;48.556;9.342;2022-12-07T13:55:00;4.40;99.90
21744;DHT22;11034;48.556;9.342;2022-12-07T13:57:30;4.40;99.90
21744;DHT22;11034;48.556;9.342;2022-12-07T14:00:01;4.30;99.90
21744;DHT22;11034;48.556;9.342;2022-12-07T14:02:35;4.30;99.90
21744;DHT22;11034;48.556;9.342;2022-12-07T14:05:23;4.40;99.90
21744;DHT22;11034;48.556;9.342;2022-12-07T14:07:58;4.30;99.90
21744;DHT22;11034;48.556;9.342;2022-12-07T14:10:30;4.30;99.90
21744;DHT22;11034;48.556;9.342;2022-12-07T14:13:00;4.40;99.90
21744;DHT22;11034;48.556;9.342;2022-12-07T14:15:29;4.30;99.90
21744;DHT22;11034;48.556;9.342;2022-12-07T14:18:02;4.20;99.90
21744;DHT22;11034;48.556;9.342;2022-12-07T14:20:33;4.20;99.90
21744;DHT22;11034;48.556;9.342;2022-12-07T14:23:01;4.20;99.90
21744;DHT22;11034;48.556;9.342;2022-12-07T14:25:46;4.10;99.90
21744;DHT22;11034;48.556;9.342;2022-12-07T14:28:27;4.10;99.90
21744;DHT22;11034;48.556;9.342;2022-12-07T14:30:56;4.10;99.90
21744;DHT22;11034;48.556;9.342;2022-12-07T14:33:25;4.00;99.90
21744;DHT22;11034;48.556;9.342;2022-12-07T14:35:54;4.10;99.90
21744;DHT22;11034;48.556;9.342;2022-12-07T14:38:25;4.00;99.90
21744;DHT22;11034;48.556;9.342;2022-12-07T14:40:55;4.00;99.90
21744;DHT22;11034;48.556;9.342;2022-12-07T14:43:44;4.00;99.90
21744;DHT22;11034;48.556;9.342;2022-12-07T14:46:32;4.00;99.90
21744;DHT22;11034;48.556;9.342;2022-12-07T14:49:00;3.90;99.90
21744;DHT22;11034;48.556;9.342;2022-12-07T14:51:48;3.80;99.90
21744;DHT22;11034;48.556;9.342;2022-12-07T14:54:36;3.80;99.90
21744;DHT22;11034;48.556;9.342;2022-12-07T14:57:08;3.70;99.90
21744;DHT22;11034;48.556;9.342;2022-12-07T14:59:36;3.80;99.90
21744;DHT22;11034;48.556;9.342;2022-12-07T15:02:14;3.80;99.90
21744;DHT22;11034;48.556;9.342;2022-12-07T15:04:44;3.80;99.90
21744;DHT22;11034;48.556;9.342;2022-12-07T15:07:16;3.80;99.90
21744;DHT22;11034;48.556;9.342;2022-12-07T15:09:46;3.80;99.90
21744;DHT22;11034;48.556;9.342;2022-12-07T15:12:15;3.70;99.90
21744;DHT22;11034;48.556;9.342;2022-12-07T15:14:45;3.70;99.90
21744;DHT22;11034;48.556;9.342;2022-12-07T15:17:13;3.70;99.90
21744;DHT22;11034;48.556;9.342;2022-12-07T15:19:55;3.70;99.90
21744;DHT22;11034;48.556;9.342;2022-12-07T15:22:23;3.60;99.90
21744;DHT22;11034;48.556;9.342;2022-12-07T15:24:51;3.60;99.90
21744;DHT22;11034;48.556;9.342;2022-12-07T15:27:24;3.60;99.90
21744;DHT22;11034;48.556;9.342;2022-12-07T15:29:52;3.70;99.90
21744;DHT22;11034;48.556;9.342;2022-12-07T15:32:20;3.70;99.90
21744;DHT22;11034;48.556;9.342;2022-12-07T15:34:49;3.60;99.90
21744;DHT22;11034;48.556;9.342;2022-12-07T15:37:17;3.60;99.90
21744;DHT22;11034;48.556;9.342;2022-12-07T15:39:46;3.60;99.90
21744;DHT22;11034;48.556;9.342;2022-12-07T15:42:14;3.60;99.90
21744;DHT22;11034;48.556;9.342;2022-12-07T15:44:43;3.60;99.90
21744;DHT22;11034;48.556;9.342;2022-12-07T15:47:29;3.60;99.90
21744;DHT22;11034;48.556;9.342;2022-12-07T15:49:57;3.60;99.90
21744;DHT22;11034;48.556;9.342;2022-12-07T15:52:25;3.50;99.90
21744;DHT22;11034;48.556;9.342;2022-12-07T15:54:53;3.50;99.90
21744;DHT22;11034;48.556;9.342;2022-12-07T15:57:21;3.40;99.90
21744;DHT22;11034;48.556;9.342;2022-12-07T15:59:53;3.50;99.90
21744;DHT22;11034;48.556;9.342;2022-12-07T16:02:21;3.40;99.90
21744;DHT22;11034;48.556;9.342;2022-12-07T16:04:50;3.40;99.90
21744;DHT22;11034;48.556;9.342;2022-12-07T16:07:18;3.40;99.90
21744;DHT22;11034;48.556;9.342;2022-12-07T16:09:47;3.40;99.90
21744;DHT22;11034;48.556;9.342;2022-12-07T16:12:16;3.40;99.90
21744;DHT22;11034;48.556;9.342;2022-12-07T16:14:44;3.40;99.90
21744;DHT22;11034;48.556;9.342;2022-12-07T16:17:13;3.30;99.90
21744;DHT22;11034;48.556;9.342;2022-12-07T16:19:41;3.20;99.90
21744;DHT22;11034;48.556;9.342;2022-12-07T16:22:09;3.20;99.90
21744;DHT22;11034;48.556;9.342;2022-12-07T16:24:37;3.10;99.90
21744;DHT22;11034;48.556;9.342;2022-12-07T16:27:06;3.10;99.90
21744;DHT22;11034;48.556;9.342;2022-12-07T16:29:34;3.10;99.90
21744;DHT22;11034;48.556;9.342;2022-12-07T16:32:02;3.10;99.90
21744;DHT22;11034;48.556;9.342;2022-12-07T16:34:32;3.20;99.90